sensor_id;sensor_type;location;lat;lon;timestamp;pressure;altitude;pressure_sealevel;temperature;humidity
56721;BME280;53183;47.412;18.884;2024-01-11T00:01:23;100605.34;;;-5.98;100.00
56721;BME280;53183;47.412;18.884;2024-01-11T00:03:50;100603.84;;;-5.90;100.00
56721;BME280;53183;47.412;18.884;2024-01-11T00:06:19;100606.47;;;-5.88;100.00
56721;BME280;53183;47.412;18.884;2024-01-11T00:08:46;100605.34;;;-5.98;100.00
56721;BME280;53183;47.412;18.884;2024-01-11T00:11:13;100607.66;;;-6.06;100.00
56721;BME280;53183;47.412;18.884;2024-01-11T00:13:44;100614.69;;;-6.02;100.00
56721;BME280;53183;47.412;18.884;2024-01-11T00:16:11;100605.00;;;-6.09;100.00
56721;BME280;53183;47.412;18.884;2024-01-11T00:18:38;100616.87;;;-6.14;100.00
56721;BME280;53183;47.412;18.884;2024-01-11T00:21:05;100618.69;;;-6.10;100.00
56721;BME280;53183;47.412;18.884;2024-01-11T00:23:32;100612.50;;;-6.17;100.00
56721;BME280;53183;47.412;18.884;2024-01-11T00:25:59;100607.91;;;-6.25;100.00
56721;BME280;53183;47.412;18.884;2024-01-11T00:28:26;100597.69;;;-6.24;100.00
56721;BME280;53183;47.412;18.884;2024-01-11T00:30:53;100586.75;;;-6.17;100.00
56721;BME280;53183;47.412;18.884;2024-01-11T00:33:20;100593.37;;;-6.25;100.00
56721;BME280;53183;47.412;18.884;2024-01-11T00:35:48;100591.12;;;-6.14;100.00
56721;BME280;53183;47.412;18.884;2024-01-11T00:38:15;100594.44;;;-6.18;100.00
56721;BME280;53183;47.412;18.884;2024-01-11T00:40:42;100590.66;;;-6.29;100.00
56721;BME280;53183;47.412;18.884;2024-01-11T00:43:09;100587.78;;;-6.39;100.00
56721;BME280;53183;47.412;18.884;2024-01-11T00:45:36;100586.13;;;-6.37;100.00
56721;BME280;53183;47.412;18.884;2024-01-11T00:48:03;100580.84;;;-6.41;100.00
56721;BME280;53183;47.412;18.884;2024-01-11T00:50:31;100580.69;;;-6.46;100.00
56721;BME280;53183;47.412;18.884;2024-01-11T00:52:58;100577.16;;;-6.49;100.00
56721;BME280;53183;47.412;18.884;2024-01-11T00:55:25;100570.22;;;-6.52;100.00
56721;BME280;53183;47.412;18.884;2024-01-11T00:57:52;100572.78;;;-6.52;100.00
56721;BME280;53183;47.412;18.884;2024-01-11T01:00:19;100574.47;;;-6.52;100.00
56721;BME280;53183;47.412;18.884;2024-01-11T01:02:46;100566.72;;;-6.54;100.00
56721;BME280;53183;47.412;18.884;2024-01-11T01:05:13;100565.69;;;-6.59;100.00
56721;BME280;53183;47.412;18.884;2024-01-11T01:07:40;100558.91;;;-6.57;100.00
56721;BME280;53183;47.412;18.884;2024-01-11T01:10:08;100564.53;;;-6.42;100.00
56721;BME280;53183;47.412;18.884;2024-01-11T01:12:35;100561.00;;;-6.45;100.00
56721;BME280;53183;47.412;18.884;2024-01-11T01:15:02;100559.31;;;-6.45;100.00
56721;BME280;53183;47.412;18.884;2024-01-11T01:17:30;100543.44;;;-6.31;100.00
56721;BME280;53183;47.412;18.884;2024-01-11T01:19:57;100546.47;;;-6.16;100.00
56721;BME280;53183;47.412;18.884;2024-01-11T01:22:24;100543.22;;;-6.10;100.00
56721;BME280;53183;47.412;18.884;2024-01-11T01:24:53;100542.75;;;-6.26;100.00
56721;BME280;53183;47.412;18.884;2024-01-11T01:27:20;100540.38;;;-6.47;100.00
56721;BME280;53183;47.412;18.884;2024-01-11T01:29:47;100540.16;;;-6.54;100.00
56721;BME280;53183;47.412;18.884;2024-01-11T01:32:14;100532.25;;;-6.61;100.00
56721;BME280;53183;47.412;18.884;2024-01-11T01:34:41;100535.56;;;-6.63;100.00
56721;BME280;53183;47.412;18.884;2024-01-11T01:37:12;100527.00;;;-6.64;100.00
56721;BME280;53183;47.412;18.884;2024-01-11T01:39:39;100525.22;;;-6.65;100.00
56721;BME280;53183;47.412;18.884;2024-01-11T01:42:06;100517.38;;;-6.69;100.00
56721;BME280;53183;47.412;18.884;2024-01-11T01:44:34;100518.41;;;-6.64;100.00
56721;BME280;53183;47.412;18.884;2024-01-11T01:47:02;100509.75;;;-6.68;100.00
56721;BME280;53183;47.412;18.884;2024-01-11T01:49:30;100515.75;;;-6.67;100.00
56721;BME280;53183;47.412;18.884;2024-01-11T01:51:58;100503.03;;;-6.63;100.00
56721;BME280;53183;47.412;18.884;2024-01-11T01:54:25;100510.91;;;-6.58;100.00
56721;BME280;53183;47.412;18.884;2024-01-11T01:56:53;100509.13;;;-6.59;100.00
56721;BME280;53183;47.412;18.884;2024-01-11T01:59:21;100507.41;;;-6.60;100.00
56721;BME280;53183;47.412;18.884;2024-01-11T02:01:50;100497.13;;;-6.60;100.00
56721;BME280;53183;47.412;18.884;2024-01-11T02:04:17;100497.13;;;-6.60;100.00
56721;BME280;53183;47.412;18.884;2024-01-11T02:06:46;100488.47;;;-6.62;100.00
56721;BME280;53183;47.412;18.884;2024-01-11T02:09:14;100495.47;;;-6.58;100.00
56721;BME280;53183;47.412;18.884;2024-01-11T02:11:44;100492.16;;;-6.54;100.00
56721;BME280;53183;47.412;18.884;2024-01-11T02:14:11;100492.09;;;-6.55;100.00
56721;BME280;53183;47.412;18.884;2024-01-11T02:16:38;100485.91;;;-6.62;100.00
56721;BME280;53183;47.412;18.884;2024-01-11T02:19:06;100475.59;;;-6.64;100.00
56721;BME280;53183;47.412;18.884;2024-01-11T02:21:34;100474.56;;;-6.69;100.00
56721;BME280;53183;47.412;18.884;2024-01-11T02:24:05;100474.63;;;-6.67;100.00
56721;BME280;53183;47.412;18.884;2024-01-11T02:26:33;100479.12;;;-6.60;100.00
56721;BME280;53183;47.412;18.884;2024-01-11T02:29:00;100469.59;;;-6.63;100.00
56721;BME280;53183;47.412;18.884;2024-01-11T02:31:28;100466.91;;;-6.67;100.00
56721;BME280;53183;47.412;18.884;2024-01-11T02:33:55;100459.22;;;-6.66;100.00
56721;BME280;53183;47.412;18.884;2024-01-11T02:36:25;100457.53;;;-6.65;100.00
56721;BME280;53183;47.412;18.884;2024-01-11T02:38:54;100464.34;;;-6.67;100.00
56721;BME280;53183;47.412;18.884;2024-01-11T02:41:22;100458.25;;;-6.69;100.00
56721;BME280;53183;47.412;18.884;2024-01-11T02:43:52;100453.09;;;-6.71;100.00
56721;BME280;53183;47.412;18.884;2024-01-11T02:46:20;100447.84;;;-6.74;100.00
56721;BME280;53183;47.412;18.884;2024-01-11T02:48:49;100446.87;;;-6.77;100.00
56721;BME280;53183;47.412;18.884;2024-01-11T02:51:16;100442.53;;;-6.78;100.00
56721;BME280;53183;47.412;18.884;2024-01-11T02:53:44;100440.91;;;-6.76;100.00
56721;BME280;53183;47.412;18.884;2024-01-11T02:56:11;100438.56;;;-6.69;100.00
56721;BME280;53183;47.412;18.884;2024-01-11T02:58:38;100438.75;;;-6.63;100.00
56721;BME280;53183;47.412;18.884;2024-01-11T03:01:06;100444.78;;;-6.62;100.00
56721;BME280;53183;47.412;18.884;2024-01-11T03:03:33;100440.00;;;-6.50;100.00
56721;BME280;53183;47.412;18.884;2024-01-11T03:06:03;100439.31;;;-6.44;100.00
56721;BME280;53183;47.412;18.884;2024-01-11T03:08:33;100432.56;;;-6.41;100.00
56721;BME280;53183;47.412;18.884;2024-01-11T03:11:01;100427.44;;;-6.41;100.00
56721;BME280;53183;47.412;18.884;2024-01-11T03:13:28;100431.00;;;-6.35;100.00
56721;BME280;53183;47.412;18.884;2024-01-11T03:15:56;100425.16;;;-6.30;100.00
56721;BME280;53183;47.412;18.884;2024-01-11T03:18:24;100428.47;;;-6.34;100.00
56721;BME280;53183;47.412;18.884;2024-01-11T03:20:52;100424.00;;;-6.40;100.00
56721;BME280;53183;47.412;18.884;2024-01-11T03:23:19;100417.88;;;-6.45;100.00
56721;BME280;53183;47.412;18.884;2024-01-11T03:25:46;100415.31;;;-6.45;100.00
56721;BME280;53183;47.412;18.884;2024-01-11T03:28:14;100419.56;;;-6.45;100.00
56721;BME280;53183;47.412;18.884;2024-01-11T03:30:41;100410.16;;;-6.45;100.00
56721;BME280;53183;47.412;18.884;2024-01-11T03:33:10;100401.97;;;-6.31;100.00
56721;BME280;53183;47.412;18.884;2024-01-11T03:35:37;100401.34;;;-6.23;100.00
56721;BME280;53183;47.412;18.884;2024-01-11T03:38:07;100403.41;;;-6.11;100.00
56721;BME280;53183;47.412;18.884;2024-01-11T03:40:35;100401.03;;;-6.03;100.00
56721;BME280;53183;47.412;18.884;2024-01-11T03:43:03;100390.28;;;-5.88;100.00
56721;BME280;53183;47.412;18.884;2024-01-11T03:45:30;100389.13;;;-6.00;100.00
56721;BME280;53183;47.412;18.884;2024-01-11T03:47:58;100377.72;;;-6.09;100.00
56721;BME280;53183;47.412;18.884;2024-01-11T03:50:25;100379.47;;;-6.08;100.00
56721;BME280;53183;47.412;18.884;2024-01-11T03:52:53;100373.56;;;-6.04;100.00
56721;BME280;53183;47.412;18.884;2024-01-11T03:55:20;100365.84;;;-6.04;100.00
56721;BME280;53183;47.412;18.884;2024-01-11T03:57:48;100377.13;;;-5.99;100.00
56721;BME280;53183;47.412;18.884;2024-01-11T04:00:16;100376.44;;;-5.94;100.00
56721;BME280;53183;47.412;18.884;2024-01-11T04:02:43;100364.34;;;-5.96;100.00
56721;BME280;53183;47.412;18.884;2024-01-11T04:05:11;100362.63;;;-5.96;100.00
56721;BME280;53183;47.412;18.884;2024-01-11T04:07:38;100356.69;;;-5.95;100.00
56721;BME280;53183;47.412;18.884;2024-01-11T04:10:06;100358.41;;;-5.94;100.00
56721;BME280;53183;47.412;18.884;2024-01-11T04:12:36;100361.88;;;-5.92;100.00
56721;BME280;53183;47.412;18.884;2024-01-11T04:15:07;100363.69;;;-5.87;100.00
56721;BME280;53183;47.412;18.884;2024-01-11T04:17:34;100358.00;;;-5.76;100.00
56721;BME280;53183;47.412;18.884;2024-01-11T04:20:02;100368.50;;;-5.68;100.00
56721;BME280;53183;47.412;18.884;2024-01-11T04:22:32;100366.03;;;-5.63;100.00
56721;BME280;53183;47.412;18.884;2024-01-11T04:24:59;100365.94;;;-5.67;100.00
56721;BME280;53183;47.412;18.884;2024-01-11T04:27:26;100362.34;;;-5.73;100.00
56721;BME280;53183;47.412;18.884;2024-01-11T04:29:53;100361.56;;;-5.71;100.00
56721;BME280;53183;47.412;18.884;2024-01-11T04:32:21;100364.19;;;-5.69;100.00
56721;BME280;53183;47.412;18.884;2024-01-11T04:34:48;100365.00;;;-5.70;100.00
56721;BME280;53183;47.412;18.884;2024-01-11T04:37:18;100359.75;;;-5.73;100.00
56721;BME280;53183;47.412;18.884;2024-01-11T04:39:45;100369.37;;;-5.66;100.00
56721;BME280;53183;47.412;18.884;2024-01-11T04:42:12;100373.91;;;-5.57;100.00
56721;BME280;53183;47.412;18.884;2024-01-11T04:44:41;100368.03;;;-5.52;100.00
56721;BME280;53183;47.412;18.884;2024-01-11T04:47:09;100376.37;;;-5.62;100.00
56721;BME280;53183;47.412;18.884;2024-01-11T04:49:39;100378.66;;;-5.73;100.00
56721;BME280;53183;47.412;18.884;2024-01-11T04:52:06;100373.38;;;-5.79;100.00
56721;BME280;53183;47.412;18.884;2024-01-11T04:54:35;100368.22;;;-5.79;100.00
56721;BME280;53183;47.412;18.884;2024-01-11T04:57:03;100370.81;;;-5.77;100.00
56721;BME280;53183;47.412;18.884;2024-01-11T04:59:32;100368.12;;;-5.82;100.00
56721;BME280;53183;47.412;18.884;2024-01-11T05:02:00;100368.87;;;-5.86;100.00
56721;BME280;53183;47.412;18.884;2024-01-11T05:04:27;100366.06;;;-5.97;100.00
56721;BME280;53183;47.412;18.884;2024-01-11T05:06:56;100365.06;;;-6.02;100.00
56721;BME280;53183;47.412;18.884;2024-01-11T05:09:23;100368.38;;;-6.06;100.00
56721;BME280;53183;47.412;18.884;2024-01-11T05:11:50;100364.16;;;-6.04;100.00
56721;BME280;53183;47.412;18.884;2024-01-11T05:14:17;100362.34;;;-6.08;100.00
56721;BME280;53183;47.412;18.884;2024-01-11T05:16:45;100362.50;;;-6.02;100.00
56721;BME280;53183;47.412;18.884;2024-01-11T05:19:12;100356.44;;;-6.04;100.00
56721;BME280;53183;47.412;18.884;2024-01-11T05:21:40;100352.84;;;-6.09;100.00
56721;BME280;53183;47.412;18.884;2024-01-11T05:24:07;100345.66;;;0.73;100.00
56721;BME280;53183;47.412;18.884;2024-01-11T05:26:38;100345.44;;;7.38;100.00
56721;BME280;53183;47.412;18.884;2024-01-11T05:29:05;100342.16;;;10.49;54.52
56721;BME280;53183;47.412;18.884;2024-01-11T05:31:33;100328.78;;;11.57;43.71
56721;BME280;53183;47.412;18.884;2024-01-11T05:34:00;100335.44;;;8.69;42.18
56721;BME280;53183;47.412;18.884;2024-01-11T05:36:28;100337.06;;;5.73;45.63
56721;BME280;53183;47.412;18.884;2024-01-11T05:38:55;100340.59;;;3.51;51.09
56721;BME280;53183;47.412;18.884;2024-01-11T05:41:23;100350.69;;;1.66;56.16
56721;BME280;53183;47.412;18.884;2024-01-11T05:43:50;100364.66;;;0.13;61.96
56721;BME280;53183;47.412;18.884;2024-01-11T05:46:18;100357.25;;;-0.90;66.96
56721;BME280;53183;47.412;18.884;2024-01-11T05:48:46;100360.97;;;-1.61;72.66
56721;BME280;53183;47.412;18.884;2024-01-11T05:51:15;100365.28;;;-2.41;77.73
56721;BME280;53183;47.412;18.884;2024-01-11T05:53:43;100362.06;;;-2.87;81.11
56721;BME280;53183;47.412;18.884;2024-01-11T05:56:10;100356.41;;;-3.21;84.32
56721;BME280;53183;47.412;18.884;2024-01-11T05:58:39;100348.16;;;-3.51;86.38
56721;BME280;53183;47.412;18.884;2024-01-11T06:01:07;100356.16;;;-3.86;89.15
56721;BME280;53183;47.412;18.884;2024-01-11T06:03:36;100356.69;;;-4.04;91.07
56721;BME280;53183;47.412;18.884;2024-01-11T06:06:05;100364.12;;;-4.19;93.25
56721;BME280;53183;47.412;18.884;2024-01-11T06:08:36;100362.84;;;-4.40;96.01
56721;BME280;53183;47.412;18.884;2024-01-11T06:11:03;100369.41;;;-4.54;97.96
56721;BME280;53183;47.412;18.884;2024-01-11T06:13:32;100364.97;;;-4.61;99.48
56721;BME280;53183;47.412;18.884;2024-01-11T06:16:00;100359.66;;;-4.69;100.00
56721;BME280;53183;47.412;18.884;2024-01-11T06:18:27;100366.47;;;-4.73;100.00
56721;BME280;53183;47.412;18.884;2024-01-11T06:20:54;100368.09;;;-4.76;100.00
56721;BME280;53183;47.412;18.884;2024-01-11T06:23:24;100358.00;;;-4.67;100.00
56721;BME280;53183;47.412;18.884;2024-01-11T06:25:51;100361.47;;;-4.65;100.00
56721;BME280;53183;47.412;18.884;2024-01-11T06:28:18;100358.78;;;-4.69;100.00
56721;BME280;53183;47.412;18.884;2024-01-11T06:30:46;100347.28;;;-4.84;100.00
56721;BME280;53183;47.412;18.884;2024-01-11T06:33:13;100358.44;;;-4.86;100.00
56721;BME280;53183;47.412;18.884;2024-01-11T06:35:40;100355.91;;;-4.83;100.00
56721;BME280;53183;47.412;18.884;2024-01-11T06:38:07;100351.22;;;-4.62;100.00
56721;BME280;53183;47.412;18.884;2024-01-11T06:40:34;100347.47;;;-4.76;100.00
56721;BME280;53183;47.412;18.884;2024-01-11T06:43:01;100340.41;;;-4.85;100.00
56721;BME280;53183;47.412;18.884;2024-01-11T06:45:28;100349.06;;;-4.83;100.00
56721;BME280;53183;47.412;18.884;2024-01-11T06:47:56;100349.81;;;-4.87;100.00
56721;BME280;53183;47.412;18.884;2024-01-11T06:50:24;100339.75;;;-4.75;100.00
56721;BME280;53183;47.412;18.884;2024-01-11T06:52:51;100334.44;;;-4.82;100.00
56721;BME280;53183;47.412;18.884;2024-01-11T06:55:19;100335.44;;;-4.76;100.00
56721;BME280;53183;47.412;18.884;2024-01-11T06:57:47;100344.12;;;-4.72;100.00
56721;BME280;53183;47.412;18.884;2024-01-11T07:00:15;100344.47;;;-4.55;100.00
56721;BME280;53183;47.412;18.884;2024-01-11T07:02:42;100336.88;;;-4.48;100.00
56721;BME280;53183;47.412;18.884;2024-01-11T07:05:10;100336.84;;;-4.51;100.00
56721;BME280;53183;47.412;18.884;2024-01-11T07:07:38;100328.53;;;-4.36;100.00
56721;BME280;53183;47.412;18.884;2024-01-11T07:10:10;100329.59;;;-4.26;100.00
56721;BME280;53183;47.412;18.884;2024-01-11T07:12:39;100328.72;;;-4.27;100.00
56721;BME280;53183;47.412;18.884;2024-01-11T07:15:08;100326.22;;;-4.22;100.00
56721;BME280;53183;47.412;18.884;2024-01-11T07:17:38;100324.72;;;-4.11;100.00
56721;BME280;53183;47.412;18.884;2024-01-11T07:20:06;100332.53;;;-4.08;100.00
56721;BME280;53183;47.412;18.884;2024-01-11T07:22:34;100337.75;;;-4.03;100.00
56721;BME280;53183;47.412;18.884;2024-01-11T07:25:05;100326.66;;;-3.99;100.00
56721;BME280;53183;47.412;18.884;2024-01-11T07:27:33;100327.50;;;-3.98;100.00
56721;BME280;53183;47.412;18.884;2024-01-11T07:30:01;100326.03;;;-3.86;100.00
56721;BME280;53183;47.412;18.884;2024-01-11T07:32:30;100339.72;;;-3.91;100.00
56721;BME280;53183;47.412;18.884;2024-01-11T07:34:58;100334.84;;;-3.74;100.00
56721;BME280;53183;47.412;18.884;2024-01-11T07:37:28;100341.63;;;-3.81;100.00
56721;BME280;53183;47.412;18.884;2024-01-11T07:39:55;100337.22;;;-3.85;100.00
56721;BME280;53183;47.412;18.884;2024-01-11T07:42:22;100339.09;;;-3.77;100.00
56721;BME280;53183;47.412;18.884;2024-01-11T07:44:49;100341.41;;;-3.92;100.00
56721;BME280;53183;47.412;18.884;2024-01-11T07:47:17;100343.19;;;-3.89;100.00
56721;BME280;53183;47.412;18.884;2024-01-11T07:49:44;100342.28;;;-3.91;100.00
56721;BME280;53183;47.412;18.884;2024-01-11T07:52:12;100331.97;;;-3.91;100.00
56721;BME280;53183;47.412;18.884;2024-01-11T07:54:40;100329.47;;;-3.87;100.00
56721;BME280;53183;47.412;18.884;2024-01-11T07:57:08;100330.44;;;-3.79;100.00
56721;BME280;53183;47.412;18.884;2024-01-11T07:59:36;100329.75;;;-3.71;100.00
56721;BME280;53183;47.412;18.884;2024-01-11T08:02:04;100318.56;;;-3.70;100.00
56721;BME280;53183;47.412;18.884;2024-01-11T08:04:33;100315.22;;;-3.65;100.00
56721;BME280;53183;47.412;18.884;2024-01-11T08:07:01;100324.66;;;-3.65;100.00
56721;BME280;53183;47.412;18.884;2024-01-11T08:09:29;100325.72;;;-3.53;100.00
56721;BME280;53183;47.412;18.884;2024-01-11T08:11:56;100319.84;;;-3.44;100.00
56721;BME280;53183;47.412;18.884;2024-01-11T08:14:24;100314.69;;;-3.42;99.61
56721;BME280;53183;47.412;18.884;2024-01-11T08:16:52;100317.38;;;-3.36;99.29
56721;BME280;53183;47.412;18.884;2024-01-11T08:19:29;100310.56;;;-3.31;98.86
56721;BME280;53183;47.412;18.884;2024-01-11T08:21:56;100302.78;;;-3.34;99.07
56721;BME280;53183;47.412;18.884;2024-01-11T08:24:23;100302.13;;;-3.21;98.15
56721;BME280;53183;47.412;18.884;2024-01-11T08:26:52;100303.25;;;-3.02;96.60
56721;BME280;53183;47.412;18.884;2024-01-11T08:29:20;100293.06;;;-2.91;96.39
56721;BME280;53183;47.412;18.884;2024-01-11T08:31:50;100287.06;;;-2.89;95.15
56721;BME280;53183;47.412;18.884;2024-01-11T08:34:17;100295.00;;;-2.75;91.51
56721;BME280;53183;47.412;18.884;2024-01-11T08:36:44;100289.75;;;-2.81;90.83
56721;BME280;53183;47.412;18.884;2024-01-11T08:39:11;100292.41;;;-2.73;90.43
56721;BME280;53183;47.412;18.884;2024-01-11T08:41:39;100293.44;;;-2.62;89.53
56721;BME280;53183;47.412;18.884;2024-01-11T08:44:12;100298.53;;;-2.70;90.08
56721;BME280;53183;47.412;18.884;2024-01-11T08:46:40;100291.50;;;-2.78;90.92
56721;BME280;53183;47.412;18.884;2024-01-11T08:49:07;100291.56;;;-2.74;90.06
56721;BME280;53183;47.412;18.884;2024-01-11T08:51:36;100289.09;;;-2.65;90.55
56721;BME280;53183;47.412;18.884;2024-01-11T08:54:07;100290.94;;;-2.54;90.89
56721;BME280;53183;47.412;18.884;2024-01-11T08:56:36;100295.25;;;-2.56;89.46
56721;BME280;53183;47.412;18.884;2024-01-11T08:59:04;100294.34;;;-2.58;90.39
56721;BME280;53183;47.412;18.884;2024-01-11T09:01:32;100284.22;;;-2.40;88.66
56721;BME280;53183;47.412;18.884;2024-01-11T09:04:02;100291.13;;;-2.39;89.45
56721;BME280;53183;47.412;18.884;2024-01-11T09:06:29;100294.78;;;-2.19;88.33
56721;BME280;53183;47.412;18.884;2024-01-11T09:08:57;100283.50;;;-2.24;87.08
56721;BME280;53183;47.412;18.884;2024-01-11T09:11:24;100285.00;;;-2.44;87.36
56721;BME280;53183;47.412;18.884;2024-01-11T09:13:51;100291.97;;;-2.39;86.49
56721;BME280;53183;47.412;18.884;2024-01-11T09:16:18;100282.38;;;-2.47;88.12
56721;BME280;53183;47.412;18.884;2024-01-11T09:18:45;100281.69;;;-2.32;87.15
56721;BME280;53183;47.412;18.884;2024-01-11T09:21:12;100293.09;;;-2.17;86.74
56721;BME280;53183;47.412;18.884;2024-01-11T09:23:39;100285.25;;;-2.21;85.31
56721;BME280;53183;47.412;18.884;2024-01-11T09:26:06;100287.84;;;-2.21;85.57
56721;BME280;53183;47.412;18.884;2024-01-11T09:28:35;100281.97;;;-2.06;84.22
56721;BME280;53183;47.412;18.884;2024-01-11T09:31:05;100274.28;;;-2.00;83.11
56721;BME280;53183;47.412;18.884;2024-01-11T09:33:34;100266.34;;;-2.17;84.10
56721;BME280;53183;47.412;18.884;2024-01-11T09:36:02;100264.66;;;-2.12;83.94
56721;BME280;53183;47.412;18.884;2024-01-11T09:38:30;100268.16;;;-2.05;83.55
56721;BME280;53183;47.412;18.884;2024-01-11T09:41:08;100252.56;;;-2.13;84.94
56721;BME280;53183;47.412;18.884;2024-01-11T09:43:43;100253.59;;;-1.97;84.61
56721;BME280;53183;47.412;18.884;2024-01-11T09:46:11;100246.66;;;-1.98;85.13
56721;BME280;53183;47.412;18.884;2024-01-11T09:48:43;100240.63;;;-1.96;85.42
56721;BME280;53183;47.412;18.884;2024-01-11T09:51:11;100227.69;;;-1.97;86.68
56721;BME280;53183;47.412;18.884;2024-01-11T09:53:40;100220.81;;;-1.89;87.84
56721;BME280;53183;47.412;18.884;2024-01-11T09:56:15;100210.56;;;-1.75;87.48
56721;BME280;53183;47.412;18.884;2024-01-11T09:58:46;100203.63;;;-1.82;87.79
56721;BME280;53183;47.412;18.884;2024-01-11T10:01:17;100201.81;;;-1.91;88.40
56721;BME280;53183;47.412;18.884;2024-01-11T10:03:44;100191.62;;;-1.68;89.70
56721;BME280;53183;47.412;18.884;2024-01-11T10:06:20;100185.59;;;-1.67;88.53
56721;BME280;53183;47.412;18.884;2024-01-11T10:08:51;100182.16;;;-1.64;88.61
56721;BME280;53183;47.412;18.884;2024-01-11T10:11:20;100180.59;;;-1.36;88.11
56721;BME280;53183;47.412;18.884;2024-01-11T10:13:48;100174.53;;;-1.40;88.80
56721;BME280;53183;47.412;18.884;2024-01-11T10:16:17;100176.31;;;-1.31;87.64
56721;BME280;53183;47.412;18.884;2024-01-11T10:18:44;100176.25;;;-1.39;88.14
56721;BME280;53183;47.412;18.884;2024-01-11T10:21:11;100162.47;;;-1.35;88.31
56721;BME280;53183;47.412;18.884;2024-01-11T10:23:39;100168.59;;;-1.17;87.90
56721;BME280;53183;47.412;18.884;2024-01-11T10:26:06;100160.84;;;-1.02;85.67
56721;BME280;53183;47.412;18.884;2024-01-11T10:28:36;100153.09;;;-1.04;86.25
56721;BME280;53183;47.412;18.884;2024-01-11T10:31:06;100149.66;;;-1.01;82.84
56721;BME280;53183;47.412;18.884;2024-01-11T10:33:34;100138.41;;;-0.96;82.46
56721;BME280;53183;47.412;18.884;2024-01-11T10:36:03;100126.25;;;-1.06;82.06
56721;BME280;53183;47.412;18.884;2024-01-11T10:38:35;100138.38;;;-1.06;82.37
56721;BME280;53183;47.412;18.884;2024-01-11T10:41:05;100139.28;;;-0.95;79.46
56721;BME280;53183;47.412;18.884;2024-01-11T10:43:37;100147.94;;;-0.91;77.92
56721;BME280;53183;47.412;18.884;2024-01-11T10:46:05;100142.72;;;-0.99;78.53
56721;BME280;53183;47.412;18.884;2024-01-11T10:48:38;100140.19;;;-0.88;79.90
56721;BME280;53183;47.412;18.884;2024-01-11T10:51:12;100142.78;;;-0.73;79.93
56721;BME280;53183;47.412;18.884;2024-01-11T10:53:43;100122.97;;;-0.53;79.18
56721;BME280;53183;47.412;18.884;2024-01-11T10:56:16;100116.03;;;-0.38;76.53
56721;BME280;53183;47.412;18.884;2024-01-11T10:58:46;100128.16;;;-0.39;75.19
56721;BME280;53183;47.412;18.884;2024-01-11T11:01:15;100136.81;;;-0.31;75.31
56721;BME280;53183;47.412;18.884;2024-01-11T11:03:48;100128.13;;;-0.54;76.24
56721;BME280;53183;47.412;18.884;2024-01-11T11:06:20;100128.13;;;-0.54;76.29
56721;BME280;53183;47.412;18.884;2024-01-11T11:08:50;100123.81;;;-0.49;77.18
56721;BME280;53183;47.412;18.884;2024-01-11T11:11:18;100113.41;;;-0.51;78.34
56721;BME280;53183;47.412;18.884;2024-01-11T11:13:47;100104.78;;;-0.39;76.40
56721;BME280;53183;47.412;18.884;2024-01-11T11:16:16;100095.25;;;-0.43;76.86
56721;BME280;53183;47.412;18.884;2024-01-11T11:18:43;100080.53;;;-0.41;77.09
56721;BME280;53183;47.412;18.884;2024-01-11T11:21:12;100086.59;;;-0.34;76.92
56721;BME280;53183;47.412;18.884;2024-01-11T11:23:42;100080.56;;;-0.39;76.45
56721;BME280;53183;47.412;18.884;2024-01-11T11:26:15;100076.19;;;-0.47;76.72
56721;BME280;53183;47.412;18.884;2024-01-11T11:28:46;100065.81;;;-0.20;77.67
56721;BME280;53183;47.412;18.884;2024-01-11T11:31:37;100074.50;;;-0.23;77.45
56721;BME280;53183;47.412;18.884;2024-01-11T11:34:05;100073.63;;;-0.16;73.91
56721;BME280;53183;47.412;18.884;2024-01-11T11:36:33;100085.75;;;-0.22;73.90
56721;BME280;53183;47.412;18.884;2024-01-11T11:39:02;100066.69;;;-0.12;72.79
56721;BME280;53183;47.412;18.884;2024-01-11T11:41:32;100060.59;;;-0.07;70.74
56721;BME280;53183;47.412;18.884;2024-01-11T11:44:04;100048.47;;;-0.11;70.17
56721;BME280;53183;47.412;18.884;2024-01-11T11:46:35;100043.28;;;-0.09;70.53
56721;BME280;53183;47.412;18.884;2024-01-11T11:49:03;100045.03;;;-0.10;67.92
56721;BME280;53183;47.412;18.884;2024-01-11T11:51:30;100041.53;;;-0.13;68.52
56721;BME280;53183;47.412;18.884;2024-01-11T11:53:57;100036.34;;;-0.06;68.90
56721;BME280;53183;47.412;18.884;2024-01-11T11:56:24;100037.19;;;-0.04;66.49
56721;BME280;53183;47.412;18.884;2024-01-11T11:58:52;100038.09;;;0.00;67.40
56721;BME280;53183;47.412;18.884;2024-01-11T12:01:20;100041.50;;;0.17;66.13
56721;BME280;53183;47.412;18.884;2024-01-11T12:03:53;100043.25;;;0.05;65.10
56721;BME280;53183;47.412;18.884;2024-01-11T12:06:21;100035.47;;;0.03;65.55
56721;BME280;53183;47.412;18.884;2024-01-11T12:08:53;100021.56;;;0.24;65.49
56721;BME280;53183;47.412;18.884;2024-01-11T12:11:26;100015.50;;;0.27;66.24
56721;BME280;53183;47.412;18.884;2024-01-11T12:13:57;100011.19;;;0.12;66.39
56721;BME280;53183;47.412;18.884;2024-01-11T12:16:25;100025.03;;;0.20;66.41
56721;BME280;53183;47.412;18.884;2024-01-11T12:18:54;100013.75;;;0.19;65.28
56721;BME280;53183;47.412;18.884;2024-01-11T12:21:21;100005.12;;;0.17;65.28
56721;BME280;53183;47.412;18.884;2024-01-11T12:23:49;100006.75;;;0.43;65.00
56721;BME280;53183;47.412;18.884;2024-01-11T12:26:17;99993.78;;;0.29;65.03
56721;BME280;53183;47.412;18.884;2024-01-11T12:28:50;99996.38;;;0.37;64.20
56721;BME280;53183;47.412;18.884;2024-01-11T12:31:18;99994.59;;;0.50;63.75
56721;BME280;53183;47.412;18.884;2024-01-11T12:33:47;99983.19;;;0.70;62.74
56721;BME280;53183;47.412;18.884;2024-01-11T12:36:17;99978.94;;;0.53;62.58
56721;BME280;53183;47.412;18.884;2024-01-11T12:38:47;99977.19;;;0.61;62.31
56721;BME280;53183;47.412;18.884;2024-01-11T12:41:22;99972.72;;;0.81;60.70